createdAt,value
2023-01-17T00:02:24.254Z,64352.53
2023-01-17T00:05:10.436Z,63838.31
2023-01-17T00:07:56.331Z,63581.25
2023-01-17T00:10:26.206Z,62810.16
2023-01-17T00:13:02.284Z,63067.16
2023-01-17T00:15:31.201Z,63067.16
2023-01-17T00:17:59.481Z,62039.22
2023-01-17T00:20:50.654Z,62296.19
2023-01-17T00:23:39.554Z,62553.16
2023-01-17T00:26:18.469Z,62296.19
2023-01-17T00:28:46.097Z,62039.22
2023-01-17T00:31:15.107Z,61782.28
2023-01-17T00:33:42.343Z,61525.38
2023-01-17T00:36:13.494Z,61268.47
2023-01-17T00:38:41.033Z,61525.38
2023-01-17T00:41:13.865Z,61525.38
2023-01-17T00:44:00.182Z,61011.59
2023-01-17T00:46:46.868Z,60754.75
2023-01-17T00:49:35.838Z,60497.91
2023-01-17T00:52:22.001Z,60241.09
2023-01-17T00:55:08.014Z,59727.50
2023-01-17T00:57:53.902Z,59470.75
2023-01-17T01:00:39.845Z,59214.00
2023-01-17T01:03:29.999Z,59214.00
2023-01-17T01:06:16.024Z,59214.00
2023-01-17T01:09:04.415Z,58700.59
2023-01-17T01:11:50.301Z,58700.59
2023-01-17T01:14:36.195Z,58700.59
2023-01-17T01:17:22.614Z,58700.59
2023-01-17T01:20:08.318Z,57930.59
2023-01-17T01:22:54.014Z,56904.22
2023-01-17T01:25:39.736Z,56647.66
2023-01-17T01:28:30.080Z,56647.66
2023-01-17T01:31:21.878Z,56647.66
2023-01-17T01:33:51.969Z,56647.66
2023-01-17T01:36:19.862Z,56134.63
2023-01-17T01:38:47.006Z,56134.63
2023-01-17T01:41:14.516Z,55365.22
2023-01-17T01:43:51.980Z,55108.78
2023-01-17T01:46:40.971Z,54339.59
2023-01-17T01:49:22.018Z,54339.59
2023-01-17T01:51:54.358Z,54083.25
2023-01-17T01:54:30.651Z,53570.59
2023-01-17T01:57:03.393Z,53826.91
2023-01-17T01:59:32.258Z,53826.91
2023-01-17T02:01:59.697Z,53306.31
2023-01-17T02:04:28.695Z,53826.91
2023-01-17T02:07:12.366Z,53756.84
2023-01-17T02:09:39.572Z,53314.31
2023-01-17T02:12:08.484Z,52887.88
2023-01-17T02:14:35.672Z,52571.56
2023-01-17T02:17:05.753Z,52349.38
2023-01-17T02:19:41.809Z,52257.28
2023-01-17T02:22:33.683Z,52135.19
2023-01-17T02:25:34.966Z,52307.34
2023-01-17T02:28:32.588Z,51861.00
2023-01-17T02:31:08.852Z,52375.41
2023-01-17T02:33:48.218Z,52233.28
2023-01-17T02:36:36.878Z,51094.56
2023-01-17T02:39:19.757Z,50962.50
2023-01-17T02:41:59.838Z,51266.66
2023-01-17T02:44:27.116Z,50344.31
2023-01-17T02:46:56.491Z,50192.28
2023-01-17T02:49:30.280Z,49668.22
2023-01-17T02:52:54.043Z,48096.53
2023-01-17T02:55:39.130Z,48904.28
2023-01-17T02:58:15.969Z,48728.31
2023-01-17T03:01:03.422Z,48778.28
2023-01-17T03:03:45.573Z,48698.31
2023-01-17T03:06:24.237Z,48830.28
2023-01-17T03:08:52.946Z,48584.34
2023-01-17T03:11:20.758Z,48452.38
2023-01-17T03:13:48.109Z,47976.56
2023-01-17T03:16:19.801Z,48326.44
2023-01-17T03:18:49.229Z,48292.44
2023-01-17T03:21:19.836Z,47848.63
2023-01-17T03:23:47.364Z,47716.69
2023-01-17T03:26:14.814Z,48058.53
2023-01-17T03:28:44.147Z,47700.72
2023-01-17T03:31:16.119Z,47764.69
2023-01-17T03:33:44.082Z,47274.97
2023-01-17T03:36:12.049Z,47217.00
2023-01-17T03:38:39.549Z,46683.41
2023-01-17T03:41:07.071Z,46593.50
2023-01-17T03:43:36.693Z,46541.53
2023-01-17T03:46:17.258Z,46789.34
2023-01-17T03:48:46.912Z,46499.59
2023-01-17T03:51:14.292Z,46187.88
2023-01-17T03:53:41.562Z,45542.59
2023-01-17T03:56:09.368Z,45722.38
2023-01-17T03:58:36.491Z,45582.53
2023-01-17T04:01:06.476Z,45314.84
2023-01-17T04:03:33.645Z,44687.72
2023-01-17T04:06:01.671Z,45163.06
2023-01-17T04:08:29.360Z,45236.97
2023-01-17T04:10:56.980Z,45442.69
2023-01-17T04:13:29.102Z,45322.84
2023-01-17T04:15:56.628Z,45352.81
2023-01-17T04:18:26.556Z,45428.72
2023-01-17T04:20:53.862Z,45428.72
2023-01-17T04:23:21.085Z,45436.72
2023-01-17T04:25:52.227Z,45264.94
2023-01-17T04:28:24.104Z,45530.59
2023-01-17T04:30:51.909Z,45622.50
2023-01-17T04:33:19.415Z,45574.53
2023-01-17T04:35:48.699Z,45518.59
2023-01-17T04:38:16.087Z,45576.53
2023-01-17T04:40:43.164Z,47716.69
2023-01-17T04:43:12.668Z,48872.28
2023-01-17T04:45:48.476Z,48134.50
2023-01-17T04:48:15.625Z,47718.69
2023-01-17T04:50:42.821Z,46955.19
2023-01-17T04:53:10.158Z,47023.16
2023-01-17T04:55:37.437Z,49066.25
2023-01-17T04:58:07.418Z,48140.50
2023-01-17T05:00:36.939Z,48076.53
2023-01-17T05:03:04.278Z,47820.66
2023-01-17T05:05:31.494Z,47211.00
2023-01-17T05:08:01.589Z,47013.16
2023-01-17T05:10:28.732Z,46933.22
2023-01-17T05:12:59.806Z,46743.38
2023-01-17T05:15:27.623Z,46599.50
2023-01-17T05:17:55.324Z,46653.44
2023-01-17T05:20:27.585Z,46227.84
2023-01-17T05:22:57.823Z,46325.75
2023-01-17T05:25:27.716Z,46331.75
2023-01-17T05:27:55.258Z,46401.66
2023-01-17T05:30:22.958Z,46425.66
2023-01-17T05:32:52.082Z,46291.78
2023-01-17T05:35:24.718Z,45876.19
2023-01-17T05:37:52.741Z,45518.59
2023-01-17T05:40:22.829Z,45025.22
2023-01-17T05:42:52.312Z,45051.19
2023-01-17T05:45:25.901Z,45366.78
2023-01-17T05:47:57.906Z,48340.44
2023-01-17T05:50:32.432Z,47758.69
2023-01-17T05:53:05.179Z,46697.41
2023-01-17T05:55:33.046Z,46411.66
2023-01-17T05:58:01.121Z,46489.59
2023-01-17T06:00:29.194Z,48050.53
2023-01-17T06:05:28.863Z,47810.66
2023-01-17T06:07:56.581Z,43761.16
2023-01-17T06:10:28.295Z,40594.09
2023-01-17T06:13:12.876Z,40229.09
2023-01-17T06:15:40.231Z,40073.53
2023-01-17T06:18:08.090Z,39965.81
2023-01-17T06:20:38.333Z,39929.94
2023-01-17T06:23:07.968Z,40003.72
2023-01-17T06:25:44.199Z,39900.00
2023-01-17T06:28:13.653Z,39874.09
2023-01-17T06:30:41.771Z,39836.19
2023-01-17T06:33:13.200Z,39876.09
2023-01-17T06:35:41.062Z,39858.13
2023-01-17T06:38:09.970Z,39911.97
2023-01-17T06:40:39.358Z,39876.09
2023-01-17T06:43:06.719Z,39949.88
2023-01-17T06:45:35.927Z,39925.94
2023-01-17T06:48:05.065Z,39919.97
2023-01-17T06:50:33.428Z,39906.00
2023-01-17T06:53:06.813Z,39935.91
2023-01-17T06:55:37.135Z,39921.94
2023-01-17T06:58:04.247Z,39945.88
2023-01-17T07:00:34.960Z,39955.84
2023-01-17T07:03:02.519Z,39987.75
2023-01-17T07:05:37.095Z,40021.66
2023-01-17T07:08:05.039Z,40061.56
2023-01-17T07:10:32.299Z,40181.22
2023-01-17T07:13:00.704Z,40253.03
2023-01-17T07:15:28.254Z,40312.84
2023-01-17T07:17:55.706Z,40304.88
2023-01-17T07:20:22.933Z,40245.03
2023-01-17T07:22:50.224Z,40177.22
2023-01-17T07:25:17.584Z,40039.63
2023-01-17T07:27:44.757Z,39945.88
2023-01-17T07:30:14.529Z,40001.72
2023-01-17T07:32:42.078Z,40029.66
2023-01-17T07:35:09.449Z,40021.66
2023-01-17T07:37:36.886Z,39989.75
2023-01-17T07:40:04.380Z,39959.84
2023-01-17T07:42:31.726Z,39989.75
2023-01-17T07:45:00.651Z,39969.81
2023-01-17T07:47:27.816Z,39953.88
2023-01-17T07:49:55.359Z,39913.97
2023-01-17T07:52:23.624Z,39937.91
2023-01-17T07:54:51.072Z,39935.91
2023-01-17T07:57:20.877Z,39931.94
2023-01-17T07:59:55.836Z,39904.00
2023-01-17T08:02:23.747Z,39955.84
2023-01-17T08:04:50.968Z,39921.94
2023-01-17T08:07:21.323Z,39900.00
2023-01-17T08:09:50.797Z,39927.94
2023-01-17T08:12:18.063Z,39927.94
2023-01-17T08:14:45.365Z,39902.00
2023-01-17T08:17:20.436Z,39906.00
2023-01-17T08:19:52.180Z,39937.91
2023-01-17T08:22:19.901Z,39975.81
2023-01-17T08:24:47.523Z,40025.66
2023-01-17T08:27:15.259Z,40151.31
2023-01-17T08:29:48.425Z,40231.09
2023-01-17T08:32:16.042Z,40354.75
2023-01-17T08:34:43.266Z,40530.28
2023-01-17T08:37:12.268Z,40683.84
2023-01-17T08:39:39.449Z,40835.47
2023-01-17T08:42:11.495Z,40999.03
2023-01-17T08:44:40.001Z,41262.38
2023-01-17T08:47:07.207Z,41477.88
2023-01-17T08:49:34.386Z,41771.16
2023-01-17T08:52:06.413Z,42146.31
2023-01-17T08:54:33.639Z,42711.13
2023-01-17T08:57:03.239Z,43020.53
2023-01-17T08:59:31.664Z,43425.75
2023-01-17T09:02:01.538Z,43723.22
2023-01-17T09:04:28.900Z,43894.94
2023-01-17T09:06:57.499Z,44362.19
2023-01-17T09:09:49.906Z,44501.97
2023-01-17T09:12:17.347Z,44843.47
2023-01-17T09:14:45.218Z,45278.91
2023-01-17T09:17:15.196Z,46028.03
2023-01-17T09:19:47.524Z,46309.75
2023-01-17T09:22:15.138Z,46543.53
2023-01-17T09:24:45.088Z,47127.06
2023-01-17T09:27:12.243Z,47996.56
2023-01-17T09:29:39.865Z,48212.47
2023-01-17T09:32:07.281Z,48200.47
2023-01-17T09:34:34.459Z,48452.38
2023-01-17T09:37:01.943Z,50144.25
2023-01-17T09:39:31.511Z,50220.28
2023-01-17T09:42:25.285Z,52003.09
2023-01-17T09:44:53.618Z,51632.84
2023-01-17T09:47:30.161Z,56391.13
2023-01-17T09:50:07.511Z,57417.38
2023-01-17T09:52:34.945Z,60497.91
2023-01-17T09:55:02.647Z,62039.22
2023-01-17T09:57:59.737Z,63581.25
2023-01-17T10:00:35.575Z,68468.91
2023-01-17T10:03:23.892Z,76974.69
2023-01-17T10:06:30.569Z,81881.53
2023-01-17T10:09:34.785Z,82656.94
2023-01-17T10:12:41.191Z,82915.44
2023-01-17T10:15:27.161Z,83173.97
2023-01-17T10:18:29.918Z,82915.44
2023-01-17T10:21:24.917Z,81623.09
2023-01-17T10:24:03.636Z,80072.94
2023-01-17T10:26:33.788Z,78007.13
2023-01-17T10:29:05.953Z,75942.56
2023-01-17T10:31:43.530Z,78523.44
2023-01-17T10:34:19.185Z,80847.91
2023-01-17T10:36:52.830Z,81106.28
2023-01-17T10:39:25.386Z,81881.53
2023-01-17T10:42:02.968Z,81623.09
2023-01-17T10:44:57.515Z,81881.53
2023-01-17T10:47:29.168Z,70786.59
2023-01-17T10:50:01.834Z,51554.81
2023-01-17T10:52:53.235Z,41370.13
2023-01-17T10:55:29.980Z,39957.84
2023-01-17T10:57:59.836Z,40029.66
2023-01-17T11:00:30.029Z,40402.63
2023-01-17T11:02:57.539Z,40775.63
2023-01-17T11:05:34.294Z,41116.75
2023-01-17T11:08:07.437Z,41374.13
2023-01-17T11:10:36.841Z,41549.69
2023-01-17T11:13:06.726Z,41749.22
2023-01-17T11:15:39.479Z,41627.50
2023-01-17T11:18:16.518Z,41429.97
2023-01-17T11:20:47.497Z,41102.78
2023-01-17T11:23:24.169Z,40703.81
2023-01-17T11:25:55.372Z,40420.56
2023-01-17T11:28:30.618Z,40270.97
2023-01-17T11:31:00.624Z,40097.47
2023-01-17T11:33:55.740Z,40035.63
2023-01-17T11:36:33.019Z,39965.81
2023-01-17T11:39:07.948Z,39925.94
2023-01-17T11:41:41.031Z,39874.09
2023-01-17T11:44:26.159Z,39874.09
2023-01-17T11:47:11.994Z,39919.97
2023-01-17T11:49:44.370Z,39925.94
2023-01-17T11:52:18.252Z,39963.84
2023-01-17T11:54:47.780Z,39971.81
2023-01-17T11:57:35.993Z,40049.59
2023-01-17T12:00:15.500Z,40133.34
2023-01-17T12:03:15.947Z,40213.13
2023-01-17T12:05:51.163Z,40265.00
2023-01-17T12:08:33.673Z,40247.03
2023-01-17T12:11:12.427Z,40348.75
2023-01-17T12:14:02.454Z,40432.53
2023-01-17T12:17:04.062Z,40566.16
2023-01-17T12:20:01.547Z,40574.16
2023-01-17T12:23:06.026Z,40779.59
2023-01-17T12:25:48.106Z,40915.25
2023-01-17T12:28:47.237Z,40833.47
2023-01-17T12:31:32.569Z,40893.31
2023-01-17T12:34:14.867Z,40999.03
2023-01-17T12:37:20.612Z,40897.31
2023-01-17T12:39:58.417Z,41184.56
2023-01-17T12:42:31.635Z,41380.09
2023-01-17T12:45:07.568Z,41382.09
2023-01-17T12:47:42.980Z,41483.84
2023-01-17T12:50:37.126Z,41509.78
2023-01-17T12:53:27.131Z,41463.91
2023-01-17T12:56:07.591Z,41192.56
2023-01-17T12:58:51.052Z,41216.50
2023-01-17T13:01:18.178Z,41348.19
2023-01-17T13:04:07.472Z,41527.75
2023-01-17T13:06:58.832Z,41511.78
2023-01-17T13:09:33.888Z,41382.09
2023-01-17T13:12:06.172Z,41284.34
2023-01-17T13:14:33.654Z,41703.34
2023-01-17T13:17:20.369Z,40510.31
2023-01-17T13:20:15.283Z,39969.81
2023-01-17T13:22:49.602Z,39929.94
2023-01-17T13:25:32.701Z,39886.06
2023-01-17T13:28:06.986Z,39941.91
2023-01-17T13:31:14.134Z,40073.53
2023-01-17T13:34:26.159Z,40328.81
2023-01-17T13:37:12.182Z,40580.13
2023-01-17T13:40:00.371Z,40725.75
2023-01-17T13:42:47.900Z,40951.16
2023-01-17T13:45:24.055Z,41214.50
2023-01-17T13:47:52.961Z,41230.47
2023-01-17T13:50:41.133Z,41394.06
2023-01-17T13:53:27.685Z,41793.13
2023-01-17T13:56:25.821Z,41890.91
2023-01-17T13:58:58.226Z,42266.06
2023-01-17T14:01:34.876Z,42286.03
2023-01-17T14:04:04.481Z,41781.16
2023-01-17T14:06:41.697Z,41467.88
2023-01-17T14:09:27.291Z,41667.41
2023-01-17T14:12:06.488Z,41575.63
2023-01-17T14:14:41.788Z,42044.56
2023-01-17T14:17:28.198Z,42765.03
2023-01-17T14:20:03.408Z,43667.31
2023-01-17T14:22:37.765Z,44408.13
2023-01-17T14:25:18.073Z,45568.56
2023-01-17T14:27:50.095Z,46435.63
2023-01-17T14:30:17.633Z,47834.63
2023-01-17T14:33:04.733Z,48506.38
2023-01-17T14:35:37.340Z,50298.28
2023-01-17T14:38:24.980Z,51853.00
2023-01-17T14:41:03.153Z,53228.22
2023-01-17T14:43:35.106Z,54517.88
2023-01-17T14:46:06.857Z,55878.13
2023-01-17T14:48:34.309Z,56904.22
2023-01-17T14:51:13.291Z,57417.38
2023-01-17T14:53:53.271Z,58443.91
2023-01-17T14:56:22.850Z,59214.00
2023-01-17T14:59:06.513Z,59984.28
2023-01-17T15:02:05.801Z,61011.59
2023-01-17T15:04:43.288Z,63581.25
2023-01-17T15:07:20.912Z,64352.53
2023-01-17T15:09:50.988Z,65638.38
2023-01-17T15:12:22.261Z,66410.09
2023-01-17T15:14:59.220Z,66667.38
2023-01-17T15:17:28.313Z,67182.00
2023-01-17T15:20:08.923Z,68211.50
2023-01-17T15:22:36.691Z,66667.38
2023-01-17T15:25:09.139Z,51228.63
2023-01-17T15:27:37.871Z,47714.69
2023-01-17T15:30:07.462Z,51170.59
2023-01-17T15:32:34.832Z,55621.66
2023-01-17T15:35:06.120Z,58187.25
2023-01-17T15:37:36.338Z,60241.09
2023-01-17T15:40:24.630Z,61268.47
2023-01-17T15:43:06.503Z,62296.19
2023-01-17T15:45:33.948Z,63324.19
2023-01-17T15:48:36.617Z,64352.53
2023-01-17T15:51:04.689Z,65381.16
2023-01-17T15:53:37.706Z,66152.84
2023-01-17T15:56:37.727Z,67439.34
2023-01-17T15:59:42.019Z,68211.50
2023-01-17T16:02:31.257Z,69498.81
2023-01-17T16:05:02.691Z,70528.97
2023-01-17T16:07:35.442Z,71301.84
2023-01-17T16:10:32.826Z,71559.47
2023-01-17T16:13:00.450Z,73105.81
2023-01-17T16:15:31.196Z,71301.84
2023-01-17T16:17:58.283Z,53810.91
2023-01-17T16:20:36.564Z,44787.56
2023-01-17T16:23:03.915Z,42649.25
2023-01-17T16:25:33.046Z,44036.72
2023-01-17T16:28:01.133Z,42761.03
2023-01-17T16:30:31.037Z,41916.84
2023-01-17T16:33:00.878Z,41334.22
2023-01-17T16:35:31.266Z,41250.41
2023-01-17T16:38:02.252Z,41186.56
2023-01-17T16:40:33.542Z,40398.63
2023-01-17T16:43:03.434Z,40127.38
2023-01-17T16:45:31.019Z,39975.81
2023-01-17T16:47:58.126Z,40053.56
2023-01-17T16:50:26.404Z,40171.25
2023-01-17T16:52:58.801Z,39543.06
2023-01-17T16:55:32.601Z,39674.66
2023-01-17T16:58:02.408Z,39664.69
2023-01-17T17:00:30.912Z,39618.84
2023-01-17T17:02:58.302Z,39539.06
2023-01-17T17:05:26.531Z,39521.13
2023-01-17T17:07:56.590Z,39509.16
2023-01-17T17:10:25.247Z,39582.94
2023-01-17T17:12:52.585Z,39634.78
2023-01-17T17:15:20.080Z,39782.34
2023-01-17T17:17:48.045Z,39866.13
2023-01-17T17:20:18.439Z,40015.69
2023-01-17T17:22:51.451Z,40177.22
2023-01-17T17:25:23.871Z,40344.78
2023-01-17T17:27:53.255Z,40524.28
2023-01-17T17:30:20.883Z,40759.66
2023-01-17T17:32:50.944Z,40971.13
2023-01-17T17:35:18.328Z,41120.75
2023-01-17T17:37:45.707Z,41338.19
2023-01-17T17:40:13.526Z,41565.66
2023-01-17T17:42:43.090Z,41833.03
2023-01-17T17:45:11.487Z,41920.84
2023-01-17T17:47:41.628Z,42112.41
2023-01-17T17:50:09.542Z,42353.88
2023-01-17T17:52:38.110Z,42573.41
2023-01-17T17:55:05.748Z,43290.00
2023-01-17T17:57:35.563Z,43857.00
2023-01-17T18:02:56.076Z,44817.53
2023-01-17T18:05:27.959Z,45570.53
2023-01-17T18:07:57.574Z,46121.94
2023-01-17T18:10:24.733Z,46563.53
2023-01-17T18:12:52.100Z,46987.19
2023-01-17T18:15:20.784Z,47127.06
2023-01-17T18:18:01.917Z,47520.81
2023-01-17T18:20:33.806Z,48032.53
2023-01-17T18:23:01.261Z,48288.44
2023-01-17T18:25:28.583Z,48230.47
2023-01-17T18:27:56.205Z,47936.59
2023-01-17T18:30:26.071Z,47818.66
2023-01-17T18:32:53.185Z,47624.75
2023-01-17T18:36:12.025Z,47592.78
2023-01-17T18:39:32.107Z,47980.56
2023-01-17T18:42:02.357Z,48316.44
2023-01-17T18:44:37.143Z,47812.66
2023-01-17T18:47:07.163Z,47792.66
2023-01-17T18:49:39.969Z,47350.91
2023-01-17T18:52:09.203Z,46899.25
2023-01-17T18:54:36.461Z,47175.03
2023-01-17T18:57:03.665Z,46499.59
2023-01-17T18:59:31.039Z,46505.56
2023-01-17T19:02:31.283Z,46109.97
2023-01-17T19:04:59.499Z,46413.66
2023-01-17T19:07:29.608Z,45930.16
2023-01-17T19:09:57.034Z,45886.19
2023-01-17T19:12:26.853Z,45508.63
2023-01-17T19:14:53.993Z,44965.31
2023-01-17T19:17:21.596Z,44787.56
2023-01-17T19:19:51.093Z,44859.47
2023-01-17T19:22:21.645Z,43870.97
2023-01-17T19:24:49.006Z,43473.66
2023-01-17T19:27:18.647Z,43166.25
2023-01-17T19:29:48.191Z,42765.03
2023-01-17T19:32:18.971Z,42601.34
2023-01-17T19:34:46.237Z,42755.03
2023-01-17T19:37:14.039Z,42379.81
2023-01-17T19:39:41.399Z,42098.44
2023-01-17T19:42:15.499Z,41930.81
2023-01-17T19:44:42.877Z,41819.06
2023-01-17T19:47:18.569Z,41669.41
2023-01-17T19:49:45.987Z,41515.78
2023-01-17T19:52:17.969Z,41449.94
2023-01-17T19:54:45.600Z,41312.25
2023-01-17T19:57:15.155Z,41134.69
2023-01-17T19:59:42.320Z,40985.09
2023-01-17T20:02:11.469Z,40955.16
2023-01-17T20:04:38.758Z,40941.19
2023-01-17T20:07:05.895Z,40929.22
2023-01-17T20:09:34.630Z,40835.47
2023-01-17T20:12:02.591Z,40771.63
2023-01-17T20:14:29.921Z,40709.78
2023-01-17T20:16:59.637Z,40823.50
2023-01-17T20:19:29.733Z,40879.34
2023-01-17T20:22:02.909Z,41032.97
2023-01-17T20:24:33.293Z,41439.94
2023-01-17T20:27:01.073Z,41186.56
2023-01-17T20:29:31.416Z,41058.91
2023-01-17T20:31:58.810Z,40861.41
2023-01-17T20:34:26.294Z,40863.38
2023-01-17T20:36:59.086Z,40875.34
2023-01-17T20:39:26.441Z,40799.56
2023-01-17T20:41:53.806Z,40687.84
2023-01-17T20:44:21.260Z,40679.88
2023-01-17T20:46:51.139Z,40610.06
2023-01-17T20:49:23.375Z,40504.34
2023-01-17T20:51:50.606Z,40562.19
2023-01-17T20:54:19.400Z,40691.84
2023-01-17T20:56:48.993Z,40683.84
2023-01-17T20:59:22.294Z,40731.72
2023-01-17T21:01:50.411Z,40775.63
2023-01-17T21:04:25.699Z,40751.69
2023-01-17T21:06:53.393Z,40743.69
2023-01-17T21:09:25.337Z,40753.69
2023-01-17T21:12:00.828Z,40775.63
2023-01-17T21:14:31.301Z,40679.88
2023-01-17T21:16:58.847Z,40693.84
2023-01-17T21:19:28.780Z,40620.03
2023-01-17T21:21:59.184Z,40679.88
2023-01-17T21:24:29.222Z,40713.78
2023-01-17T21:26:59.105Z,40663.91
2023-01-17T21:29:29.109Z,40675.88
2023-01-17T21:31:58.802Z,40771.63
2023-01-17T21:34:31.855Z,40833.47
2023-01-17T21:36:59.331Z,40833.47
2023-01-17T21:39:26.486Z,40859.41
2023-01-17T21:41:54.122Z,40899.31
2023-01-17T21:44:25.887Z,40883.34
2023-01-17T21:46:56.362Z,40875.34
2023-01-17T21:49:24.255Z,40815.50
2023-01-17T21:51:54.267Z,40803.53
2023-01-17T21:54:40.772Z,40853.41
2023-01-17T21:57:27.998Z,40911.28
2023-01-17T21:59:58.018Z,40867.38
2023-01-17T22:02:25.387Z,40937.19
2023-01-17T22:04:54.610Z,41011.00
2023-01-17T22:07:22.079Z,41001.03
2023-01-17T22:09:49.219Z,40929.22
2023-01-17T22:12:16.897Z,40931.22
2023-01-17T22:14:44.270Z,41007.03
2023-01-17T22:17:11.675Z,41011.00
2023-01-17T22:19:39.070Z,41058.91
2023-01-17T22:22:06.232Z,41021.00
2023-01-17T22:24:34.207Z,41019.00
2023-01-17T22:27:01.550Z,41086.81
2023-01-17T22:29:29.526Z,41132.72
2023-01-17T22:31:56.724Z,41100.78
2023-01-17T22:34:24.141Z,41172.59
2023-01-17T22:36:51.345Z,41138.69
2023-01-17T22:39:21.331Z,41024.97
2023-01-17T22:41:49.003Z,40993.06
2023-01-17T22:44:16.129Z,41058.91
2023-01-17T22:46:43.639Z,41118.75
2023-01-17T22:49:13.309Z,41148.66
2023-01-17T22:51:40.460Z,41019.00
2023-01-17T22:54:07.792Z,41042.94
2023-01-17T22:56:35.703Z,41030.97
2023-01-17T22:59:02.928Z,41003.03
2023-01-17T23:01:35.079Z,40991.06
2023-01-17T23:04:04.321Z,41003.03
2023-01-17T23:06:37.082Z,41030.97
2023-01-17T23:09:13.347Z,40989.06
2023-01-17T23:11:47.146Z,40981.09
2023-01-17T23:14:18.826Z,40985.09
2023-01-17T23:17:19.299Z,40905.28
2023-01-17T23:19:49.360Z,40903.28
2023-01-17T23:22:24.179Z,40861.41
2023-01-17T23:25:02.010Z,40841.44
2023-01-17T23:27:59.947Z,40825.50
2023-01-17T23:30:41.394Z,40879.34
2023-01-17T23:33:13.339Z,40919.25
2023-01-17T23:35:43.414Z,40893.31
2023-01-17T23:38:28.577Z,40991.06
2023-01-17T23:41:29.886Z,40973.09
2023-01-17T23:44:00.768Z,40995.06
2023-01-17T23:46:29.945Z,40943.19
2023-01-17T23:48:59.593Z,40943.19
2023-01-17T23:51:26.715Z,40857.41
2023-01-17T23:54:07.747Z,40689.84
2023-01-17T23:56:34.955Z,40576.16
2023-01-17T23:59:02.061Z,40647.97
